Time;durP1;ratioP1;P1;durP2;ratioP2;P2;SDS_P1;SDS_P2;PMS_P1;PMS_P2;Temp;Humidity;BMP_temperature;BMP_pressure;BME280_temperature;BME280_humidity;BME280_pressure;Samples;Min_cycle;Max_cycle;Signal;HPM_P1;HPM_P2
2023/04/09 00:00:11;;;;;;;28.42;15.88;;;;;;;4.19;100.00;94431.38;4988631;28;20060;-53
2023/04/09 00:02:38;;;;;;;30.08;15.80;;;;;;;4.18;100.00;94435.25;4988698;28;20103;-52
2023/04/09 00:05:06;;;;;;;29.00;15.35;;;;;;;4.20;100.00;94430.25;4970937;28;20150;-53
2023/04/09 00:07:33;;;;;;;27.67;15.30;;;;;;;4.09;100.00;94431.22;4987060;28;20388;-54
2023/04/09 00:09:59;;;;;;;26.90;14.80;;;;;;;3.95;100.00;94424.38;4988384;28;20072;-55
2023/04/09 00:12:26;;;;;;;26.98;14.55;;;;;;;4.02;100.00;94421.00;4987208;28;20043;-55
2023/04/09 00:14:53;;;;;;;27.40;14.88;;;;;;;3.80;100.00;94417.09;4988735;28;20375;-52
2023/04/09 00:17:20;;;;;;;27.08;14.70;;;;;;;3.63;100.00;94417.56;4987239;28;20055;-53
2023/04/09 00:19:47;;;;;;;27.67;13.95;;;;;;;3.69;100.00;94414.19;4988657;28;20044;-53
2023/04/09 00:22:14;;;;;;;26.57;13.97;;;;;;;3.60;100.00;94408.19;4988391;28;20050;-54
2023/04/09 00:24:41;;;;;;;26.98;14.40;;;;;;;3.53;100.00;94411.56;4988253;28;20046;-53
2023/04/09 00:27:07;;;;;;;71.63;34.60;;;;;;;3.59;100.00;94406.63;4987249;28;20135;-54
2023/04/09 00:29:34;;;;;;;27.13;15.00;;;;;;;3.40;100.00;94416.38;4987950;28;20069;-53
2023/04/09 00:32:01;;;;;;;26.83;14.57;;;;;;;3.45;100.00;94409.09;4987308;28;20108;-53
2023/04/09 00:34:27;;;;;;;29.27;14.97;;;;;;;3.47;100.00;94406.78;4988205;28;20034;-56
2023/04/09 00:36:54;;;;;;;41.28;18.88;;;;;;;3.39;100.00;94405.88;4988511;28;20275;-54
2023/04/09 00:39:21;;;;;;;35.60;17.35;;;;;;;3.32;100.00;94403.81;4988059;28;20042;-55
2023/04/09 00:41:48;;;;;;;33.58;16.83;;;;;;;3.30;100.00;94411.50;4988039;28;20049;-50
2023/04/09 00:44:14;;;;;;;44.22;20.85;;;;;;;3.24;100.00;94404.81;4988414;28;20043;-55
2023/04/09 00:46:41;;;;;;;39.23;18.77;;;;;;;3.13;100.00;94407.28;4991852;28;20116;-55
2023/04/09 00:49:08;;;;;;;32.95;15.90;;;;;;;2.98;100.00;94410.84;4992564;28;20359;-54
2023/04/09 00:51:35;;;;;;;42.15;22.33;;;;;;;2.91;100.00;94414.16;4991812;28;20069;-54
2023/04/09 00:54:02;;;;;;;37.58;18.25;;;;;;;2.75;100.00;94406.06;4992012;28;20058;-51
2023/04/09 00:56:29;;;;;;;29.25;15.30;;;;;;;2.73;100.00;94413.78;4991625;28;20048;-51
2023/04/09 00:58:56;;;;;;;28.83;14.60;;;;;;;2.70;100.00;94419.91;4991989;28;20046;-56
2023/04/09 01:01:22;;;;;;;28.65;14.00;;;;;;;2.64;100.00;94410.50;4991802;28;20119;-55
2023/04/09 01:03:49;;;;;;;27.70;14.07;;;;;;;2.62;100.00;94409.25;4991966;28;20038;-56
2023/04/09 01:06:34;;;;;;;27.60;14.88;;;;;;;2.64;100.00;94415.13;4992017;28;20065;-55
2023/04/09 01:09:27;;;;;;;29.55;15.52;;;;;;;2.63;100.00;94414.31;4978212;28;20687;-55
2023/04/09 01:12:00;;;;;;;27.17;14.17;;;;;;;2.59;100.00;94413.47;4990637;28;20649;-54
2023/04/09 01:14:49;;;;;;;27.88;13.85;;;;;;;2.51;100.00;94415.22;4991498;28;20048;-55
2023/04/09 01:17:22;;;;;;;32.33;16.85;;;;;;;2.42;100.00;94411.13;4991587;28;20050;-54
2023/04/09 01:20:07;;;;;;;34.05;16.60;;;;;;;2.19;100.00;94417.16;4990561;28;20612;-55
2023/04/09 01:22:40;;;;;;;27.95;13.90;;;;;;;2.20;100.00;94426.88;4991196;28;20112;-56
2023/04/09 01:25:42;;;;;;;27.17;13.00;;;;;;;2.21;100.00;94423.00;4991764;28;20406;-52
2023/04/09 01:28:16;;;;;;;25.52;13.13;;;;;;;2.19;100.00;94417.97;4989771;28;20671;-55
2023/04/09 01:30:47;;;;;;;26.85;13.57;;;;;;;2.12;100.00;94419.69;4990666;28;20056;-53
2023/04/09 01:33:16;;;;;;;27.05;13.48;;;;;;;2.07;100.00;94419.94;4991574;28;20495;-53
2023/04/09 01:35:44;;;;;;;25.67;13.02;;;;;;;2.22;100.00;94426.53;4990680;28;20691;-56
2023/04/09 01:38:13;;;;;;;25.87;13.03;;;;;;;2.15;100.00;94419.81;4991714;28;20572;-52
2023/04/09 01:40:40;;;;;;;25.30;12.85;;;;;;;2.31;100.00;94422.47;4990263;28;20112;-54
2023/04/09 01:43:07;;;;;;;24.73;12.85;;;;;;;2.37;100.00;94423.81;4991393;28;20399;-55
2023/04/09 01:45:34;;;;;;;26.95;13.40;;;;;;;2.35;100.00;94419.84;4990853;28;20361;-55
2023/04/09 01:48:02;;;;;;;25.58;13.35;;;;;;;2.44;100.00;94420.47;4985450;28;20047;-54
2023/04/09 01:50:30;;;;;;;25.23;12.70;;;;;;;2.53;100.00;94418.34;4983093;28;20050;-55
2023/04/09 01:52:57;;;;;;;27.63;13.60;;;;;;;2.45;100.00;94423.97;4991103;28;20046;-52
2023/04/09 01:55:23;;;;;;;27.15;13.80;;;;;;;2.45;100.00;94421.25;4988180;28;20051;-56
2023/04/09 01:57:50;;;;;;;27.23;13.68;;;;;;;2.53;100.00;94417.56;4990967;28;20521;-56
2023/04/09 02:00:17;;;;;;;28.63;13.68;;;;;;;2.62;100.00;94418.19;4990905;28;20038;-55
2023/04/09 02:03:07;;;;;;;28.83;13.93;;;;;;;2.72;100.00;94419.56;4988786;28;20419;-56
2023/04/09 02:05:40;;;;;;;27.63;12.95;;;;;;;2.82;100.00;94423.63;4983197;28;20056;-55
2023/04/09 02:08:09;;;;;;;27.95;13.90;;;;;;;2.68;100.00;94413.28;4978137;28;20526;-56
2023/04/09 02:10:39;;;;;;;26.45;13.30;;;;;;;2.64;100.00;94415.91;4990223;28;20066;-52
2023/04/09 02:13:10;;;;;;;27.25;13.57;;;;;;;2.63;100.00;94408.91;4990424;28;20053;-55
2023/04/09 02:15:39;;;;;;;29.23;13.27;;;;;;;2.47;100.00;94411.63;4990345;28;20049;-52
2023/04/09 02:18:20;;;;;;;27.80;13.95;;;;;;;2.37;100.00;94414.88;4990289;28;20050;-55
2023/04/09 02:20:47;;;;;;;29.13;15.07;;;;;;;2.24;100.00;94416.13;4989809;28;20410;-53
2023/04/09 02:23:15;;;;;;;28.98;13.85;;;;;;;2.38;100.00;94411.06;4977335;28;20065;-54
2023/04/09 02:25:43;;;;;;;29.63;14.82;;;;;;;2.42;100.00;94408.44;4990110;28;20057;-56
2023/04/09 02:28:09;;;;;;;27.07;13.10;;;;;;;2.48;100.00;94407.03;4990252;28;20049;-58
2023/04/09 02:30:36;;;;;;;28.27;13.75;;;;;;;2.54;100.00;94414.53;4988554;28;20044;-54
2023/04/09 02:33:03;;;;;;;30.73;14.95;;;;;;;2.33;100.00;94405.88;4989853;28;20046;-54
2023/04/09 02:35:29;;;;;;;28.85;13.85;;;;;;;2.43;100.00;94408.06;4976124;28;20054;-51
2023/04/09 02:37:56;;;;;;;26.00;13.25;;;;;;;2.51;100.00;94412.50;4988773;28;20513;-60
2023/04/09 02:40:23;;;;;;;25.30;13.00;;;;;;;2.55;100.00;94410.66;4989658;28;20044;-56
2023/04/09 02:42:51;;;;;;;24.52;12.32;;;;;;;2.53;100.00;94415.66;4984150;28;20061;-54
2023/04/09 02:45:18;;;;;;;24.75;12.40;;;;;;;2.48;100.00;94399.69;4989491;28;20050;-58
2023/04/09 02:47:45;;;;;;;25.13;12.57;;;;;;;2.48;100.00;94398.91;4990225;28;20049;-52
2023/04/09 02:50:11;;;;;;;27.65;13.60;;;;;;;2.47;100.00;94400.78;4989838;28;20108;-56
2023/04/09 02:52:38;;;;;;;25.50;12.57;;;;;;;2.60;100.00;94401.50;4989513;28;20466;-51
2023/04/09 02:55:05;;;;;;;26.38;12.90;;;;;;;2.63;100.00;94397.28;4989921;28;20042;-53
2023/04/09 02:57:32;;;;;;;27.08;13.02;;;;;;;2.64;100.00;94402.34;4989149;28;20069;-56
2023/04/09 02:59:59;;;;;;;25.48;13.05;;;;;;;2.64;100.00;94396.94;4989736;28;20116;-51
2023/04/09 03:02:26;;;;;;;28.13;13.55;;;;;;;2.70;100.00;94384.69;4988090;28;20053;-57
2023/04/09 03:04:53;;;;;;;24.83;12.47;;;;;;;2.70;100.00;94390.09;4988313;28;20061;-51
2023/04/09 03:07:20;;;;;;;25.33;12.80;;;;;;;2.72;100.00;94387.06;4989114;28;20062;-54
2023/04/09 03:09:47;;;;;;;25.15;12.68;;;;;;;2.60;100.00;94385.25;4989365;28;20054;-56
2023/04/09 03:12:14;;;;;;;26.13;12.90;;;;;;;2.58;100.00;94385.59;4989775;28;20373;-53
2023/04/09 03:14:40;;;;;;;26.55;13.65;;;;;;;2.42;100.00;94382.13;4989296;28;20100;-52
2023/04/09 03:17:07;;;;;;;25.10;12.40;;;;;;;2.42;100.00;94387.53;4989633;28;20047;-57
2023/04/09 03:19:34;;;;;;;26.20;12.38;;;;;;;2.34;100.00;94381.16;4989032;28;20050;-53
2023/04/09 03:22:00;;;;;;;26.30;13.38;;;;;;;2.22;100.00;94378.56;4989578;28;20048;-55
2023/04/09 03:24:27;;;;;;;26.70;12.93;;;;;;;2.23;100.00;94374.69;4988812;28;20046;-51
2023/04/09 03:26:54;;;;;;;28.75;12.63;;;;;;;2.16;100.00;94380.75;4989490;28;20483;-54
2023/04/09 03:29:20;;;;;;;28.07;12.80;;;;;;;2.05;100.00;94379.69;4988985;28;20068;-56
2023/04/09 03:31:47;;;;;;;25.23;12.40;;;;;;;1.97;100.00;94376.03;4989581;28;20176;-53
2023/04/09 03:34:14;;;;;;;27.27;13.73;;;;;;;1.93;100.00;94377.06;4989075;28;20057;-55
2023/04/09 03:36:41;;;;;;;26.52;12.98;;;;;;;2.03;100.00;94373.84;4987451;28;20444;-55
2023/04/09 03:39:07;;;;;;;48.03;21.88;;;;;;;2.09;100.00;94377.06;4988912;28;20042;-55
2023/04/09 03:41:34;;;;;;;29.23;13.57;;;;;;;2.10;100.00;94379.44;4986623;28;20503;-52
2023/04/09 03:44:01;;;;;;;29.10;13.70;;;;;;;1.79;100.00;94381.00;4989100;28;20054;-59
2023/04/09 03:46:27;;;;;;;26.52;12.77;;;;;;;1.90;100.00;94373.16;4988538;28;20042;-54
2023/04/09 03:48:54;;;;;;;24.42;11.77;;;;;;;1.58;100.00;94383.16;4987803;28;20042;-57
2023/04/09 03:51:21;;;;;;;26.30;12.65;;;;;;;1.57;100.00;94384.28;4988398;28;20076;-52
2023/04/09 03:53:47;;;;;;;25.00;11.87;;;;;;;1.63;100.00;94382.09;4988807;28;20042;-55
2023/04/09 03:56:14;;;;;;;27.83;13.48;;;;;;;1.59;100.00;94380.09;4984745;28;20046;-55
2023/04/09 03:58:41;;;;;;;27.67;13.07;;;;;;;1.57;100.00;94387.78;4988444;28;20043;-52
2023/04/09 04:01:07;;;;;;;27.02;12.48;;;;;;;1.57;100.00;94378.88;4988554;28;20042;-53
2023/04/09 04:03:34;;;;;;;28.83;13.93;;;;;;;1.36;100.00;94384.50;4987990;28;20050;-52
2023/04/09 04:06:02;;;;;;;29.53;13.77;;;;;;;1.12;100.00;94388.88;4987338;28;20042;-53
2023/04/09 04:08:29;;;;;;;27.60;13.23;;;;;;;1.22;100.00;94390.31;4988422;28;20057;-54
2023/04/09 04:11:02;;;;;;;28.70;13.30;;;;;;;1.30;100.00;94385.88;4988393;28;20534;-57
2023/04/09 04:13:29;;;;;;;29.10;12.85;;;;;;;1.30;100.00;94385.88;4988293;28;20092;-56
2023/04/09 04:15:56;;;;;;;27.67;12.45;;;;;;;1.26;100.00;94390.41;4975501;28;20039;-56
2023/04/09 04:18:22;;;;;;;28.20;12.80;;;;;;;1.15;100.00;94396.31;4986544;28;20048;-55
2023/04/09 04:20:49;;;;;;;27.05;12.73;;;;;;;1.16;100.00;94397.09;4985694;28;20049;-53
2023/04/09 04:23:16;;;;;;;28.15;13.15;;;;;;;1.14;100.00;94391.25;4979005;28;20293;-54
2023/04/09 04:25:43;;;;;;;26.52;12.48;;;;;;;1.12;100.00;94396.19;4987635;28;20073;-52
2023/04/09 04:28:09;;;;;;;25.13;12.57;;;;;;;1.12;100.00;94393.50;4988820;28;20060;-54
2023/04/09 04:30:36;;;;;;;26.53;12.53;;;;;;;1.08;100.00;94395.31;4987955;28;20193;-55
2023/04/09 04:33:02;;;;;;;26.05;12.93;;;;;;;1.10;100.00;94401.16;4988438;28;20048;-56
2023/04/09 04:35:29;;;;;;;26.73;13.02;;;;;;;1.06;100.00;94395.66;4988048;28;20058;-53
2023/04/09 04:37:56;;;;;;;27.83;12.65;;;;;;;1.07;100.00;94409.97;4988485;28;20049;-53
2023/04/09 04:40:23;;;;;;;26.73;12.75;;;;;;;1.02;100.00;94407.50;4988002;28;20050;-56
2023/04/09 04:42:49;;;;;;;27.73;12.87;;;;;;;0.99;100.00;94401.66;4976535;28;20049;-54
2023/04/09 04:45:16;;;;;;;25.90;11.88;;;;;;;1.02;100.00;94399.38;4988359;28;20430;-57
2023/04/09 04:47:43;;;;;;;28.33;12.93;;;;;;;0.93;100.00;94400.31;4973394;28;20045;-52
2023/04/09 04:50:10;;;;;;;27.88;12.30;;;;;;;0.99;100.00;94401.66;4988322;28;20123;-53
2023/04/09 04:52:39;;;;;;;30.40;13.43;;;;;;;1.00;100.00;94397.03;4987837;28;20426;-57
2023/04/09 04:55:06;;;;;;;29.90;14.17;;;;;;;0.94;100.00;94404.56;4988122;28;20053;-58
2023/04/09 04:57:32;;;;;;;28.80;12.82;;;;;;;1.10;100.00;94401.16;4987992;28;20093;-56
2023/04/09 04:59:59;;;;;;;27.55;13.07;;;;;;;1.32;100.00;94397.91;4988230;28;20051;-56
2023/04/09 05:02:26;;;;;;;27.65;12.98;;;;;;;1.43;100.00;94403.63;4986532;28;20042;-57
2023/04/09 05:04:53;;;;;;;27.70;12.85;;;;;;;1.45;100.00;94404.06;4988240;28;20071;-53
2023/04/09 05:07:20;;;;;;;27.30;12.93;;;;;;;1.51;100.00;94410.81;4986258;28;20503;-56
2023/04/09 05:09:46;;;;;;;30.55;14.30;;;;;;;1.49;100.00;94415.78;4987344;28;20051;-57
2023/04/09 05:12:14;;;;;;;36.33;17.15;;;;;;;1.60;100.00;94407.94;4988389;28;20044;-52
2023/04/09 05:14:40;;;;;;;32.22;15.68;;;;;;;1.72;100.00;94413.28;4987712;28;20104;-51
2023/04/09 05:17:07;;;;;;;28.90;13.68;;;;;;;1.77;100.00;94413.03;4988400;28;20051;-54
2023/04/09 05:19:34;;;;;;;31.63;14.60;;;;;;;1.88;100.00;94410.59;4987679;28;20332;-53
2023/04/09 05:22:00;;;;;;;36.30;19.58;;;;;;;1.97;100.00;94411.22;4988017;28;20054;-54
2023/04/09 05:24:27;;;;;;;30.20;15.00;;;;;;;2.02;100.00;94409.41;4987508;28;20066;-55
2023/04/09 05:26:54;;;;;;;27.58;13.00;;;;;;;1.86;100.00;94412.09;4988050;28;20060;-54
2023/04/09 05:29:21;;;;;;;26.67;13.20;;;;;;;1.89;100.00;94412.19;4987659;28;20050;-54
2023/04/09 05:31:48;;;;;;;27.30;12.93;;;;;;;2.17;100.00;94412.09;4990075;28;20487;-54
2023/04/09 05:34:14;;;;;;;26.58;13.00;;;;;;;2.29;100.00;94415.84;4991660;28;20056;-57
2023/04/09 05:36:41;;;;;;;27.60;13.15;;;;;;;2.46;100.00;94409.28;4991249;28;20054;-56
2023/04/09 05:39:08;;;;;;;27.20;12.80;;;;;;;2.47;100.00;94406.22;4991770;28;20066;-53
2023/04/09 05:41:37;;;;;;;28.20;14.35;;;;;;;2.51;100.00;94406.31;4990683;28;20046;-53
2023/04/09 05:44:04;;;;;;;24.13;12.37;;;;;;;2.64;100.00;94399.66;4991773;28;20119;-53
2023/04/09 05:46:31;;;;;;;27.25;13.20;;;;;;;2.80;100.00;94408.53;4990940;28;20454;-56
2023/04/09 05:48:58;;;;;;;25.92;12.43;;;;;;;2.89;100.00;94411.03;4991650;28;20049;-53
2023/04/09 05:51:24;;;;;;;26.95;13.60;;;;;;;3.06;100.00;94401.72;4990899;28;20038;-54
2023/04/09 05:53:51;;;;;;;24.42;12.52;;;;;;;3.15;100.00;94405.00;4991105;28;20125;-54
2023/04/09 05:56:18;;;;;;;24.70;12.60;;;;;;;2.87;100.00;94388.13;4990850;28;20123;-53
2023/04/09 05:58:45;;;;;;;21.48;11.40;;;;;;;3.03;100.00;94397.00;4991229;28;20334;-57
2023/04/09 06:01:11;;;;;;;23.50;12.07;;;;;;;2.98;100.00;94406.19;4989870;28;20046;-56
2023/04/09 06:03:38;;;;;;;24.23;12.85;;;;;;;3.09;100.00;94398.28;4990764;28;20503;-55
2023/04/09 06:06:05;;;;;;;23.15;12.57;;;;;;;2.81;100.00;94398.47;4990958;28;20100;-56
2023/04/09 06:08:32;;;;;;;25.03;12.47;;;;;;;2.61;100.00;94403.06;4990557;28;20054;-57
2023/04/09 06:10:59;;;;;;;24.77;13.02;;;;;;;2.93;100.00;94401.03;4986081;28;20331;-56
2023/04/09 06:13:26;;;;;;;24.65;12.15;;;;;;;3.09;100.00;94398.28;4996704;28;20054;-56
2023/04/09 06:15:52;;;;;;;22.98;12.15;;;;;;;2.79;100.00;94400.75;4990695;28;20407;-53
2023/04/09 06:18:19;;;;;;;24.08;11.57;;;;;;;3.24;100.00;94404.00;4990332;28;20399;-57
2023/04/09 06:20:46;;;;;;;24.33;13.17;;;;;;;2.96;100.00;94397.63;4990505;28;20089;-57
2023/04/09 06:23:12;;;;;;;23.33;12.02;;;;;;;3.34;100.00;94404.22;4989391;28;20072;-53
2023/04/09 06:25:39;;;;;;;24.30;12.95;;;;;;;3.89;100.00;94392.44;4989640;28;20381;-50
2023/04/09 06:28:06;;;;;;;22.48;11.77;;;;;;;4.12;100.00;94390.50;4990454;28;20313;-56
2023/04/09 06:30:35;;;;;;;21.63;11.55;;;;;;;3.93;100.00;94391.38;4990178;28;20072;-54
2023/04/09 06:33:02;;;;;;;21.10;11.70;;;;;;;4.33;100.00;94389.31;4990490;28;20363;-53
2023/04/09 06:35:29;;;;;;;20.75;11.48;;;;;;;4.73;100.00;94390.69;4988849;28;20042;-54
2023/04/09 06:37:55;;;;;;;21.95;12.55;;;;;;;5.10;100.00;94393.53;5004997;28;20050;-54
2023/04/09 06:40:22;;;;;;;24.90;14.43;;;;;;;5.30;100.00;94387.97;4972133;28;20046;-56
2023/04/09 06:42:49;;;;;;;22.67;13.20;;;;;;;5.40;100.00;94395.47;4989841;28;20451;-55
2023/04/09 06:45:16;;;;;;;20.73;11.90;;;;;;;6.25;100.00;94394.81;4990246;28;20057;-51
2023/04/09 06:47:42;;;;;;;19.90;11.70;;;;;;;7.51;100.00;94398.38;4989463;28;20420;-58
2023/04/09 06:50:09;;;;;;;20.58;12.25;;;;;;;8.96;100.00;94385.31;4990081;28;20046;-58
2023/04/09 06:52:36;;;;;;;19.67;12.25;;;;;;;10.71;76.33;94391.16;4989542;28;20047;-57
2023/04/09 06:55:06;;;;;;;18.27;12.02;;;;;;;11.26;75.57;94397.72;4990240;28;20050;-57
2023/04/09 06:57:32;;;;;;;18.17;12.40;;;;;;;12.32;65.75;94396.84;4989806;28;20046;-59
2023/04/09 06:59:59;;;;;;;16.50;12.25;;;;;;;14.68;56.28;94396.44;4990176;28;20051;-58
2023/04/09 07:02:26;;;;;;;16.52;12.80;;;;;;;15.76;51.64;94389.00;4987749;28;20487;-58
2023/04/09 07:04:53;;;;;;;16.52;12.80;;;;;;;14.34;51.83;94399.56;4990103;28;20049;-58
2023/04/09 07:07:21;;;;;;;16.83;13.35;;;;;;;15.14;51.84;94394.53;4989663;28;20059;-60
2023/04/09 07:09:52;;;;;;;15.90;12.23;;;;;;;15.68;49.51;94393.16;4989852;28;20104;-57
2023/04/09 07:12:32;;;;;;;14.43;11.32;;;;;;;18.97;42.18;94390.97;4989274;28;20054;-60
2023/04/09 07:15:00;;;;;;;15.10;12.68;;;;;;;18.15;42.44;94386.56;4989625;28;20377;-58
2023/04/09 07:17:27;;;;;;;15.70;13.40;;;;;;;19.82;38.01;94388.66;4989189;28;20064;-59
2023/04/09 07:19:54;;;;;;;12.55;10.88;;;;;;;21.06;35.11;94380.59;4989767;28;20042;-60
2023/04/09 07:22:21;;;;;;;13.40;11.40;;;;;;;20.32;35.15;94386.44;4989585;28;20046;-59
2023/04/09 07:24:52;;;;;;;15.30;13.38;;;;;;;20.67;33.98;94385.28;4989826;28;20050;-60
2023/04/09 07:27:24;;;;;;;15.30;13.02;;;;;;;19.65;34.73;94388.16;4989365;28;20065;-59
2023/04/09 07:29:56;;;;;;;14.23;12.25;;;;;;;21.10;33.23;94381.22;4989617;28;20128;-61
2023/04/09 07:32:24;;;;;;;15.95;14.23;;;;;;;17.86;35.98;94384.81;4989030;28;20478;-60
2023/04/09 07:34:51;;;;;;;13.63;12.13;;;;;;;20.59;33.18;94387.63;4989294;28;20421;-59
2023/04/09 07:37:19;;;;;;;12.43;11.00;;;;;;;22.79;29.90;94380.94;4989027;28;20054;-59
2023/04/09 07:39:47;;;;;;;14.35;12.85;;;;;;;21.05;31.23;94379.06;4988196;28;20089;-60
2023/04/09 07:42:14;;;;;;;15.27;13.45;;;;;;;17.63;35.27;94372.13;4985352;28;20335;-60
2023/04/09 07:44:40;;;;;;;12.20;10.70;;;;;;;19.55;32.69;94381.03;4988935;28;20487;-59
2023/04/09 07:47:07;;;;;;;10.90;9.80;;;;;;;20.09;32.28;94375.94;4989429;28;20095;-58
2023/04/09 07:49:36;;;;;;;12.00;10.50;;;;;;;16.92;35.96;94389.94;4988745;28;20135;-60
2023/04/09 07:52:03;;;;;;;13.00;10.88;;;;;;;16.09;37.56;94377.00;4989014;28;20650;-58
2023/04/09 07:54:32;;;;;;;12.43;10.48;;;;;;;15.10;39.16;94387.56;4987626;28;20112;-59
2023/04/09 07:57:00;;;;;;;11.75;10.07;;;;;;;15.84;38.45;94392.34;4987764;28;20038;-59
2023/04/09 07:59:28;;;;;;;11.83;9.73;;;;;;;16.83;36.97;94392.59;4988445;28;20043;-58
2023/04/09 08:01:55;;;;;;;12.63;10.57;;;;;;;16.23;38.29;94384.13;4988895;28;20038;-59
2023/04/09 08:04:22;;;;;;;11.48;9.75;;;;;;;16.70;36.26;94389.81;4988398;28;20400;-59
2023/04/09 08:06:49;;;;;;;13.30;10.68;;;;;;;16.47;37.56;94390.91;4988795;28;20145;-60
2023/04/09 08:09:17;;;;;;;11.68;9.88;;;;;;;16.73;36.92;94390.91;4988762;28;20046;-59
2023/04/09 08:11:45;;;;;;;12.13;9.90;;;;;;;14.82;39.63;94405.63;4987866;28;20806;-60
2023/04/09 08:14:14;;;;;;;12.52;10.13;;;;;;;13.56;41.43;94408.22;4988685;28;20101;-59
2023/04/09 08:16:43;;;;;;;12.82;10.20;;;;;;;13.15;43.71;94409.31;4986424;28;20061;-58
2023/04/09 08:19:10;;;;;;;13.52;10.30;;;;;;;13.34;42.93;94405.06;4988606;28;20130;-60
2023/04/09 08:21:38;;;;;;;12.82;10.18;;;;;;;13.66;43.73;94417.50;4988318;28;20088;-58
2023/04/09 08:24:05;;;;;;;11.93;9.23;;;;;;;15.60;39.08;94402.09;4989044;28;20049;-58
2023/04/09 08:26:32;;;;;;;12.05;9.30;;;;;;;14.95;40.13;94406.47;4988025;28;20058;-63
2023/04/09 08:28:59;;;;;;;11.60;9.20;;;;;;;15.92;38.61;94409.53;4987378;28;20361;-60
2023/04/09 08:31:26;;;;;;;11.00;8.75;;;;;;;15.43;38.97;94406.84;4988089;28;20060;-59
2023/04/09 08:33:53;;;;;;;11.65;9.48;;;;;;;13.21;43.58;94421.44;4988411;28;20051;-60
2023/04/09 08:36:20;;;;;;;11.13;8.93;;;;;;;16.70;37.32;94420.31;4988296;28;20054;-58
2023/04/09 08:38:47;;;;;;;11.60;8.85;;;;;;;14.71;39.24;94414.16;4988422;28;20154;-58
2023/04/09 08:41:19;;;;;;;10.90;9.13;;;;;;;14.36;40.24;94433.03;4982940;28;20047;-61
2023/04/09 08:43:47;;;;;;;10.13;8.48;;;;;;;16.40;37.84;94421.59;4970591;28;20696;-59
2023/04/09 08:46:25;;;;;;;10.13;8.50;;;;;;;15.11;38.60;94414.78;4988157;28;20093;-60
2023/04/09 08:48:52;;;;;;;9.57;8.07;;;;;;;16.56;36.76;94426.28;4988694;28;20038;-60
2023/04/09 08:51:21;;;;;;;11.40;9.30;;;;;;;13.48;42.17;94418.63;4988290;28;20044;-58
2023/04/09 08:53:55;;;;;;;10.15;8.70;;;;;;;14.62;39.19;94419.50;4987081;28;20053;-58
2023/04/09 08:56:22;;;;;;;9.63;7.70;;;;;;;16.65;36.13;94415.28;4975580;28;20053;-60
2023/04/09 08:58:49;;;;;;;9.18;7.80;;;;;;;17.56;35.45;94411.19;4988434;28;20108;-60
2023/04/09 09:01:24;;;;;;;9.10;7.60;;;;;;;16.99;35.42;94416.66;4975013;28;20050;-58
2023/04/09 09:04:00;;;;;;;8.20;6.60;;;;;;;17.07;34.62;94420.75;4987578;28;21246;-57
2023/04/09 09:06:31;;;;;;;8.52;6.93;;;;;;;13.63;39.47;94432.16;4991240;28;20076;-60
2023/04/09 09:09:08;;;;;;;8.90;7.05;;;;;;;13.21;40.96;94423.41;4992447;28;20453;-60
2023/04/09 09:11:40;;;;;;;10.25;8.10;;;;;;;15.44;37.90;94414.72;4991524;28;20068;-60
2023/04/09 09:14:09;;;;;;;9.37;7.50;;;;;;;16.80;35.71;94415.63;4990832;28;20038;-59
2023/04/09 09:16:41;;;;;;;9.63;7.78;;;;;;;14.05;41.21;94424.25;4987247;28;20227;-59
2023/04/09 09:19:24;;;;;;;9.38;7.43;;;;;;;12.02;42.48;94435.38;4991622;28;20054;-58
2023/04/09 09:22:05;;;;;;;11.63;9.35;;;;;;;10.34;49.02;94443.94;4991074;28;20419;-58
2023/04/09 09:24:33;;;;;;;10.65;8.77;;;;;;;8.90;54.57;94435.38;4991270;28;20362;-57
2023/04/09 09:27:01;;;;;;;11.50;8.60;;;;;;;12.50;47.95;94426.09;4991478;28;20100;-60
2023/04/09 09:29:28;;;;;;;10.75;8.80;;;;;;;11.11;47.45;94434.75;4991490;28;20046;-57
2023/04/09 09:31:55;;;;;;;10.80;8.02;;;;;;;11.95;47.50;94416.97;4991322;28;20054;-58
2023/04/09 09:34:24;;;;;;;10.20;7.95;;;;;;;12.63;46.02;94424.31;4991223;28;20050;-58
2023/04/09 09:36:51;;;;;;;10.18;7.50;;;;;;;12.20;45.58;94427.69;4991740;28;20043;-59
2023/04/09 09:39:17;;;;;;;11.10;8.80;;;;;;;9.56;50.93;94437.59;4990505;28;20042;-57
2023/04/09 09:41:45;;;;;;;11.32;8.05;;;;;;;11.39;49.97;94439.19;4983135;28;20716;-57
2023/04/09 09:44:30;;;;;;;11.55;8.50;;;;;;;10.08;51.79;94434.25;4990232;28;20054;-55
2023/04/09 09:46:57;;;;;;;11.23;7.90;;;;;;;10.47;51.92;94436.81;4990457;28;21732;-59
2023/04/09 09:49:24;;;;;;;11.32;8.05;;;;;;;8.92;58.71;94441.22;4990801;28;20046;-58
2023/04/09 09:51:55;;;;;;;11.83;8.40;;;;;;;10.78;53.17;94426.00;4991202;28;20346;-57
2023/04/09 09:54:25;;;;;;;11.82;8.13;;;;;;;10.48;54.18;94441.09;4990534;28;20332;-58
2023/04/09 09:56:56;;;;;;;12.13;8.35;;;;;;;11.70;51.69;94429.03;4991356;28;20500;-57
2023/04/09 09:59:29;;;;;;;10.82;7.90;;;;;;;12.18;48.21;94430.06;4990558;28;20127;-58
2023/04/09 10:02:00;;;;;;;11.23;8.23;;;;;;;11.82;48.12;94424.97;4991367;28;20046;-58
2023/04/09 10:04:28;;;;;;;10.83;7.73;;;;;;;10.49;51.36;94428.19;4990211;28;20068;-57
2023/04/09 10:06:55;;;;;;;10.15;6.82;;;;;;;10.95;49.73;94438.03;4991187;28;20108;-59
2023/04/09 10:09:26;;;;;;;10.75;8.25;;;;;;;9.39;53.75;94433.72;4977445;28;20046;-58
2023/04/09 10:11:54;;;;;;;9.52;6.60;;;;;;;10.38;50.75;94442.75;4990703;28;20308;-58
2023/04/09 10:14:21;;;;;;;8.98;6.43;;;;;;;10.85;49.62;94431.44;4984157;28;20532;-54
2023/04/09 10:16:48;;;;;;;8.63;5.83;;;;;;;13.23;43.04;94423.78;4983391;28;20480;-58
2023/04/09 10:19:15;;;;;;;8.35;6.25;;;;;;;15.02;39.75;94422.13;4990613;28;20096;-58
2023/04/09 10:21:52;;;;;;;9.23;6.90;;;;;;;10.51;49.54;94429.31;4990492;28;20160;-57
2023/04/09 10:24:20;;;;;;;10.20;7.43;;;;;;;10.05;51.51;94426.84;4990473;28;20064;-55
2023/04/09 10:26:47;;;;;;;10.50;7.35;;;;;;;9.45;53.94;94431.38;4990770;28;20068;-58
2023/04/09 10:29:15;;;;;;;12.07;7.77;;;;;;;9.50;55.84;94439.97;4990343;28;20510;-57
2023/04/09 10:31:51;;;;;;;10.70;6.97;;;;;;;9.06;54.77;94437.72;4989981;28;20782;-57
2023/04/09 10:34:22;;;;;;;13.10;7.80;;;;;;;9.10;56.22;94431.03;4990048;28;20034;-55
2023/04/09 10:36:54;;;;;;;9.70;6.35;;;;;;;12.39;46.98;94429.78;4990428;28;20050;-56
2023/04/09 10:39:26;;;;;;;10.70;7.15;;;;;;;10.67;48.92;94430.78;4988672;28;20481;-58
2023/04/09 10:41:55;;;;;;;9.73;6.47;;;;;;;9.46;49.76;94433.72;4985235;28;20157;-56
2023/04/09 10:44:25;;;;;;;10.13;6.80;;;;;;;9.28;52.52;94420.06;4978568;28;20047;-56
2023/04/09 10:46:53;;;;;;;11.23;7.78;;;;;;;9.08;55.30;94425.19;4989170;28;20046;-56
2023/04/09 10:49:23;;;;;;;11.70;7.68;;;;;;;8.32;61.94;94438.03;4989993;28;20070;-54
2023/04/09 10:52:01;;;;;;;10.70;6.80;;;;;;;8.11;59.95;94446.97;4990199;28;20046;-57
2023/04/09 10:54:33;;;;;;;10.97;7.23;;;;;;;8.31;60.34;94439.22;4989473;28;20038;-58
2023/04/09 10:57:20;;;;;;;11.07;7.22;;;;;;;9.09;58.78;94429.47;4976080;28;20042;-58
2023/04/09 10:59:49;;;;;;;10.77;6.97;;;;;;;9.77;55.56;94437.50;4989048;28;20222;-57
2023/04/09 11:02:34;;;;;;;10.50;7.22;;;;;;;8.97;58.10;94427.94;4987306;28;20049;-57
2023/04/09 11:05:17;;;;;;;11.38;8.85;;;;;;;7.95;58.41;94443.81;4988425;28;21397;-58
2023/04/09 11:07:51;;;;;;;11.33;8.03;;;;;;;7.87;60.44;94440.28;4988760;28;20042;-56
2023/04/09 11:10:20;;;;;;;10.80;7.28;;;;;;;9.42;56.54;94427.47;4989026;28;20061;-57
2023/04/09 11:12:48;;;;;;;10.05;7.00;;;;;;;10.68;52.59;94422.13;4988328;28;20301;-56
2023/04/09 11:15:17;;;;;;;10.05;6.90;;;;;;;11.60;49.64;94422.47;4988783;28;20059;-58
2023/04/09 11:17:45;;;;;;;10.07;6.60;;;;;;;12.05;47.92;94421.56;4988085;28;21739;-60
2023/04/09 11:20:14;;;;;;;10.00;6.80;;;;;;;10.10;50.52;94418.97;4988883;28;20046;-58
2023/04/09 11:22:40;;;;;;;9.02;6.40;;;;;;;11.72;47.87;94421.16;4975666;28;20182;-58
2023/04/09 11:25:07;;;;;;;8.27;5.80;;;;;;;12.92;47.86;94405.38;4989149;28;20050;-58
2023/04/09 11:27:37;;;;;;;10.23;6.72;;;;;;;12.36;46.68;94410.56;4988068;28;20043;-58